sensor_id;sensor_type;location;lat;lon;timestamp;P1;durP1;ratioP1;P2;durP2;ratioP2
43337;SDS011;28933;52.492;13.434;2023-04-24T00:01:13;4.45;;;3.30;;
43337;SDS011;28933;52.492;13.434;2023-04-24T00:03:40;5.05;;;3.85;;
43337;SDS011;28933;52.492;13.434;2023-04-24T00:06:06;4.78;;;3.67;;
43337;SDS011;28933;52.492;13.434;2023-04-24T00:08:33;5.22;;;3.72;;
43337;SDS011;28933;52.492;13.434;2023-04-24T00:10:59;5.15;;;4.00;;
43337;SDS011;28933;52.492;13.434;2023-04-24T00:13:25;4.70;;;3.95;;
43337;SDS011;28933;52.492;13.434;2023-04-24T00:15:53;5.20;;;4.10;;
43337;SDS011;28933;52.492;13.434;2023-04-24T00:18:19;5.78;;;3.47;;
43337;SDS011;28933;52.492;13.434;2023-04-24T00:20:45;5.72;;;3.70;;
43337;SDS011;28933;52.492;13.434;2023-04-24T00:23:11;5.53;;;4.22;;
43337;SDS011;28933;52.492;13.434;2023-04-24T00:25:37;6.53;;;5.03;;
43337;SDS011;28933;52.492;13.434;2023-04-24T00:28:03;6.28;;;4.85;;
43337;SDS011;28933;52.492;13.434;2023-04-24T00:30:28;10.75;;;6.82;;
43337;SDS011;28933;52.492;13.434;2023-04-24T00:32:54;10.40;;;6.63;;
43337;SDS011;28933;52.492;13.434;2023-04-24T00:35:20;6.80;;;4.90;;
43337;SDS011;28933;52.492;13.434;2023-04-24T00:37:45;6.18;;;4.70;;
43337;SDS011;28933;52.492;13.434;2023-04-24T00:40:11;6.88;;;5.00;;
43337;SDS011;28933;52.492;13.434;2023-04-24T00:42:37;6.13;;;4.45;;
43337;SDS011;28933;52.492;13.434;2023-04-24T00:45:05;4.43;;;3.80;;
43337;SDS011;28933;52.492;13.434;2023-04-24T00:47:31;5.50;;;4.03;;
43337;SDS011;28933;52.492;13.434;2023-04-24T00:49:58;5.07;;;4.03;;
43337;SDS011;28933;52.492;13.434;2023-04-24T00:52:25;4.72;;;4.05;;
43337;SDS011;28933;52.492;13.434;2023-04-24T00:54:51;5.68;;;4.18;;
43337;SDS011;28933;52.492;13.434;2023-04-24T00:57:16;4.93;;;4.15;;
43337;SDS011;28933;52.492;13.434;2023-04-24T00:59:42;4.50;;;3.70;;
43337;SDS011;28933;52.492;13.434;2023-04-24T01:02:09;6.78;;;4.18;;
43337;SDS011;28933;52.492;13.434;2023-04-24T01:04:36;7.43;;;4.35;;
43337;SDS011;28933;52.492;13.434;2023-04-24T01:07:02;5.35;;;4.38;;
43337;SDS011;28933;52.492;13.434;2023-04-24T01:09:28;6.22;;;4.00;;
43337;SDS011;28933;52.492;13.434;2023-04-24T01:11:54;4.70;;;4.00;;
43337;SDS011;28933;52.492;13.434;2023-04-24T01:14:20;6.40;;;4.28;;
43337;SDS011;28933;52.492;13.434;2023-04-24T01:16:45;6.60;;;4.50;;
43337;SDS011;28933;52.492;13.434;2023-04-24T01:19:11;6.32;;;4.57;;
43337;SDS011;28933;52.492;13.434;2023-04-24T01:21:39;5.28;;;4.38;;
43337;SDS011;28933;52.492;13.434;2023-04-24T01:24:07;8.00;;;4.85;;
43337;SDS011;28933;52.492;13.434;2023-04-24T01:26:32;5.43;;;4.72;;
43337;SDS011;28933;52.492;13.434;2023-04-24T01:28:58;6.00;;;4.63;;
43337;SDS011;28933;52.492;13.434;2023-04-24T01:31:24;4.82;;;4.05;;
43337;SDS011;28933;52.492;13.434;2023-04-24T01:33:50;4.95;;;4.30;;
43337;SDS011;28933;52.492;13.434;2023-04-24T01:36:16;5.00;;;4.22;;
43337;SDS011;28933;52.492;13.434;2023-04-24T01:38:43;6.22;;;4.35;;
43337;SDS011;28933;52.492;13.434;2023-04-24T01:41:09;5.50;;;4.43;;
43337;SDS011;28933;52.492;13.434;2023-04-24T01:43:35;6.32;;;4.57;;
43337;SDS011;28933;52.492;13.434;2023-04-24T01:46:00;4.93;;;4.38;;
43337;SDS011;28933;52.492;13.434;2023-04-24T01:48:26;5.10;;;4.38;;
43337;SDS011;28933;52.492;13.434;2023-04-24T01:50:52;4.78;;;4.15;;
43337;SDS011;28933;52.492;13.434;2023-04-24T01:53:18;5.65;;;4.57;;
43337;SDS011;28933;52.492;13.434;2023-04-24T01:55:43;5.45;;;4.45;;
43337;SDS011;28933;52.492;13.434;2023-04-24T01:58:09;6.18;;;4.78;;
43337;SDS011;28933;52.492;13.434;2023-04-24T02:00:35;5.80;;;4.57;;
43337;SDS011;28933;52.492;13.434;2023-04-24T02:03:09;5.82;;;4.68;;
43337;SDS011;28933;52.492;13.434;2023-04-24T02:05:34;5.63;;;4.63;;
43337;SDS011;28933;52.492;13.434;2023-04-24T02:08:00;8.70;;;5.55;;
43337;SDS011;28933;52.492;13.434;2023-04-24T02:10:25;6.13;;;4.75;;
43337;SDS011;28933;52.492;13.434;2023-04-24T02:12:51;7.55;;;5.20;;
43337;SDS011;28933;52.492;13.434;2023-04-24T02:15:17;7.03;;;5.20;;
43337;SDS011;28933;52.492;13.434;2023-04-24T02:17:42;6.70;;;5.00;;
43337;SDS011;28933;52.492;13.434;2023-04-24T02:20:08;7.43;;;4.68;;
43337;SDS011;28933;52.492;13.434;2023-04-24T02:22:34;6.93;;;4.97;;
43337;SDS011;28933;52.492;13.434;2023-04-24T02:24:59;6.70;;;5.10;;
43337;SDS011;28933;52.492;13.434;2023-04-24T02:27:25;7.60;;;5.35;;
43337;SDS011;28933;52.492;13.434;2023-04-24T02:29:53;6.60;;;5.20;;
43337;SDS011;28933;52.492;13.434;2023-04-24T02:32:20;5.38;;;4.50;;
43337;SDS011;28933;52.492;13.434;2023-04-24T02:34:45;6.45;;;4.72;;
43337;SDS011;28933;52.492;13.434;2023-04-24T02:37:11;8.77;;;5.10;;
43337;SDS011;28933;52.492;13.434;2023-04-24T02:39:37;7.20;;;5.18;;
43337;SDS011;28933;52.492;13.434;2023-04-24T02:42:02;6.60;;;4.90;;
43337;SDS011;28933;52.492;13.434;2023-04-24T02:44:28;5.25;;;4.35;;
43337;SDS011;28933;52.492;13.434;2023-04-24T02:46:54;5.78;;;4.78;;
43337;SDS011;28933;52.492;13.434;2023-04-24T02:49:19;6.82;;;5.38;;
43337;SDS011;28933;52.492;13.434;2023-04-24T02:51:45;6.35;;;4.65;;
43337;SDS011;28933;52.492;13.434;2023-04-24T02:54:10;6.20;;;4.57;;
43337;SDS011;28933;52.492;13.434;2023-04-24T02:56:36;7.55;;;5.68;;
43337;SDS011;28933;52.492;13.434;2023-04-24T02:59:02;7.57;;;4.85;;
43337;SDS011;28933;52.492;13.434;2023-04-24T03:01:27;6.45;;;5.45;;
43337;SDS011;28933;52.492;13.434;2023-04-24T03:03:53;7.75;;;5.35;;
43337;SDS011;28933;52.492;13.434;2023-04-24T03:06:19;7.05;;;5.32;;
43337;SDS011;28933;52.492;13.434;2023-04-24T03:08:46;7.15;;;5.00;;
43337;SDS011;28933;52.492;13.434;2023-04-24T03:11:12;6.28;;;5.25;;
43337;SDS011;28933;52.492;13.434;2023-04-24T03:13:37;8.43;;;5.65;;
43337;SDS011;28933;52.492;13.434;2023-04-24T03:16:03;5.70;;;4.63;;
43337;SDS011;28933;52.492;13.434;2023-04-24T03:18:28;5.63;;;5.10;;
43337;SDS011;28933;52.492;13.434;2023-04-24T03:20:54;5.70;;;4.70;;
43337;SDS011;28933;52.492;13.434;2023-04-24T03:23:20;6.10;;;4.80;;
43337;SDS011;28933;52.492;13.434;2023-04-24T03:25:45;6.10;;;5.00;;
43337;SDS011;28933;52.492;13.434;2023-04-24T03:28:13;8.07;;;5.80;;
43337;SDS011;28933;52.492;13.434;2023-04-24T03:30:38;5.63;;;4.85;;
43337;SDS011;28933;52.492;13.434;2023-04-24T03:33:04;7.47;;;5.00;;
43337;SDS011;28933;52.492;13.434;2023-04-24T03:35:29;5.90;;;4.43;;
43337;SDS011;28933;52.492;13.434;2023-04-24T03:37:55;5.43;;;4.47;;
43337;SDS011;28933;52.492;13.434;2023-04-24T03:40:21;5.88;;;4.65;;
43337;SDS011;28933;52.492;13.434;2023-04-24T03:42:46;6.05;;;4.35;;
43337;SDS011;28933;52.492;13.434;2023-04-24T03:45:12;8.65;;;5.15;;
43337;SDS011;28933;52.492;13.434;2023-04-24T03:47:38;6.75;;;4.60;;
43337;SDS011;28933;52.492;13.434;2023-04-24T03:50:03;6.47;;;4.72;;
43337;SDS011;28933;52.492;13.434;2023-04-24T03:52:29;5.70;;;5.00;;
43337;SDS011;28933;52.492;13.434;2023-04-24T03:54:55;6.63;;;5.30;;
43337;SDS011;28933;52.492;13.434;2023-04-24T03:57:20;7.60;;;4.88;;
43337;SDS011;28933;52.492;13.434;2023-04-24T03:59:46;8.15;;;6.03;;
43337;SDS011;28933;52.492;13.434;2023-04-24T04:02:12;5.35;;;4.82;;
43337;SDS011;28933;52.492;13.434;2023-04-24T04:04:37;5.40;;;4.40;;
43337;SDS011;28933;52.492;13.434;2023-04-24T04:07:03;5.57;;;4.35;;
43337;SDS011;28933;52.492;13.434;2023-04-24T04:09:30;5.70;;;4.78;;
43337;SDS011;28933;52.492;13.434;2023-04-24T04:11:56;5.32;;;4.47;;
43337;SDS011;28933;52.492;13.434;2023-04-24T04:14:22;5.50;;;4.82;;
43337;SDS011;28933;52.492;13.434;2023-04-24T04:16:48;7.05;;;4.97;;
43337;SDS011;28933;52.492;13.434;2023-04-24T04:19:14;5.40;;;4.55;;
43337;SDS011;28933;52.492;13.434;2023-04-24T04:21:39;6.10;;;4.60;;
43337;SDS011;28933;52.492;13.434;2023-04-24T04:24:05;5.82;;;4.88;;
43337;SDS011;28933;52.492;13.434;2023-04-24T04:26:32;6.53;;;5.10;;
43337;SDS011;28933;52.492;13.434;2023-04-24T04:28:58;5.53;;;4.35;;
43337;SDS011;28933;52.492;13.434;2023-04-24T04:31:25;5.22;;;4.72;;
43337;SDS011;28933;52.492;13.434;2023-04-24T04:33:51;6.50;;;5.03;;
43337;SDS011;28933;52.492;13.434;2023-04-24T04:36:17;6.88;;;5.50;;
43337;SDS011;28933;52.492;13.434;2023-04-24T04:38:43;5.50;;;4.80;;
43337;SDS011;28933;52.492;13.434;2023-04-24T04:41:09;8.05;;;4.43;;
43337;SDS011;28933;52.492;13.434;2023-04-24T04:43:35;5.43;;;4.53;;
43337;SDS011;28933;52.492;13.434;2023-04-24T04:46:01;6.43;;;5.15;;
43337;SDS011;28933;52.492;13.434;2023-04-24T04:48:28;5.68;;;4.40;;
43337;SDS011;28933;52.492;13.434;2023-04-24T04:50:56;5.97;;;4.70;;
43337;SDS011;28933;52.492;13.434;2023-04-24T04:53:22;6.78;;;4.50;;
43337;SDS011;28933;52.492;13.434;2023-04-24T04:55:47;5.75;;;4.43;;
43337;SDS011;28933;52.492;13.434;2023-04-24T04:58:13;5.72;;;4.32;;
43337;SDS011;28933;52.492;13.434;2023-04-24T05:00:39;5.68;;;4.30;;
43337;SDS011;28933;52.492;13.434;2023-04-24T05:03:04;7.22;;;4.07;;
43337;SDS011;28933;52.492;13.434;2023-04-24T05:05:31;5.63;;;4.38;;
43337;SDS011;28933;52.492;13.434;2023-04-24T05:07:56;5.85;;;4.32;;
43337;SDS011;28933;52.492;13.434;2023-04-24T05:10:22;5.15;;;4.05;;
43337;SDS011;28933;52.492;13.434;2023-04-24T05:12:47;5.38;;;4.25;;
43337;SDS011;28933;52.492;13.434;2023-04-24T05:15:14;6.38;;;4.47;;
43337;SDS011;28933;52.492;13.434;2023-04-24T05:17:40;5.40;;;4.32;;
43337;SDS011;28933;52.492;13.434;2023-04-24T05:20:06;5.45;;;3.83;;
43337;SDS011;28933;52.492;13.434;2023-04-24T05:22:32;5.28;;;3.67;;
43337;SDS011;28933;52.492;13.434;2023-04-24T05:24:57;6.55;;;4.40;;
43337;SDS011;28933;52.492;13.434;2023-04-24T05:27:23;5.50;;;3.97;;
43337;SDS011;28933;52.492;13.434;2023-04-24T05:29:49;6.65;;;4.18;;
43337;SDS011;28933;52.492;13.434;2023-04-24T05:32:15;7.85;;;3.70;;
43337;SDS011;28933;52.492;13.434;2023-04-24T05:34:40;4.72;;;3.83;;
43337;SDS011;28933;52.492;13.434;2023-04-24T05:37:06;4.40;;;3.55;;
43337;SDS011;28933;52.492;13.434;2023-04-24T05:39:34;5.65;;;4.03;;
43337;SDS011;28933;52.492;13.434;2023-04-24T05:42:00;4.55;;;3.55;;
43337;SDS011;28933;52.492;13.434;2023-04-24T05:44:26;4.78;;;3.30;;
43337;SDS011;28933;52.492;13.434;2023-04-24T05:46:52;5.97;;;3.85;;
43337;SDS011;28933;52.492;13.434;2023-04-24T05:49:18;10.10;;;3.65;;
43337;SDS011;28933;52.492;13.434;2023-04-24T05:51:43;4.65;;;2.50;;
43337;SDS011;28933;52.492;13.434;2023-04-24T05:54:09;5.25;;;3.20;;
43337;SDS011;28933;52.492;13.434;2023-04-24T05:56:37;4.40;;;3.42;;
43337;SDS011;28933;52.492;13.434;2023-04-24T05:59:02;3.63;;;2.47;;
43337;SDS011;28933;52.492;13.434;2023-04-24T06:01:28;5.57;;;3.05;;
43337;SDS011;28933;52.492;13.434;2023-04-24T06:03:54;4.90;;;2.70;;
43337;SDS011;28933;52.492;13.434;2023-04-24T06:06:20;3.97;;;2.70;;
43337;SDS011;28933;52.492;13.434;2023-04-24T06:08:45;2.95;;;2.13;;
43337;SDS011;28933;52.492;13.434;2023-04-24T06:11:11;3.63;;;1.95;;
43337;SDS011;28933;52.492;13.434;2023-04-24T06:13:37;3.05;;;2.03;;
43337;SDS011;28933;52.492;13.434;2023-04-24T06:16:02;3.78;;;1.85;;
43337;SDS011;28933;52.492;13.434;2023-04-24T06:18:29;4.88;;;2.28;;
43337;SDS011;28933;52.492;13.434;2023-04-24T06:20:55;6.68;;;2.60;;
43337;SDS011;28933;52.492;13.434;2023-04-24T06:23:21;4.32;;;1.98;;
43337;SDS011;28933;52.492;13.434;2023-04-24T06:25:46;4.22;;;1.90;;
43337;SDS011;28933;52.492;13.434;2023-04-24T06:28:12;3.50;;;1.90;;
43337;SDS011;28933;52.492;13.434;2023-04-24T06:30:37;3.00;;;2.03;;
43337;SDS011;28933;52.492;13.434;2023-04-24T06:33:03;8.63;;;2.20;;
43337;SDS011;28933;52.492;13.434;2023-04-24T06:35:29;2.58;;;1.90;;
43337;SDS011;28933;52.492;13.434;2023-04-24T06:37:54;2.47;;;1.70;;
43337;SDS011;28933;52.492;13.434;2023-04-24T06:40:21;4.28;;;2.05;;
43337;SDS011;28933;52.492;13.434;2023-04-24T06:42:47;3.60;;;2.00;;
43337;SDS011;28933;52.492;13.434;2023-04-24T06:45:13;6.07;;;1.92;;
43337;SDS011;28933;52.492;13.434;2023-04-24T06:47:38;2.53;;;1.70;;
43337;SDS011;28933;52.492;13.434;2023-04-24T06:50:04;2.30;;;1.45;;
43337;SDS011;28933;52.492;13.434;2023-04-24T06:52:30;2.85;;;1.42;;
43337;SDS011;28933;52.492;13.434;2023-04-24T06:55:02;2.50;;;1.65;;
43337;SDS011;28933;52.492;13.434;2023-04-24T06:57:28;2.55;;;1.27;;
43337;SDS011;28933;52.492;13.434;2023-04-24T06:59:54;3.83;;;1.80;;
43337;SDS011;28933;52.492;13.434;2023-04-24T07:02:20;2.72;;;1.60;;
43337;SDS011;28933;52.492;13.434;2023-04-24T07:04:46;6.05;;;2.33;;
43337;SDS011;28933;52.492;13.434;2023-04-24T07:07:12;2.45;;;1.60;;
43337;SDS011;28933;52.492;13.434;2023-04-24T07:09:39;2.28;;;1.50;;
43337;SDS011;28933;52.492;13.434;2023-04-24T07:12:07;3.85;;;1.42;;
43337;SDS011;28933;52.492;13.434;2023-04-24T07:14:33;1.95;;;1.40;;
43337;SDS011;28933;52.492;13.434;2023-04-24T07:16:59;1.42;;;1.13;;
43337;SDS011;28933;52.492;13.434;2023-04-24T07:19:25;2.33;;;1.30;;
43337;SDS011;28933;52.492;13.434;2023-04-24T07:21:51;1.45;;;1.08;;
43337;SDS011;28933;52.492;13.434;2023-04-24T07:24:17;1.85;;;1.20;;
43337;SDS011;28933;52.492;13.434;2023-04-24T07:26:43;1.88;;;1.40;;
43337;SDS011;28933;52.492;13.434;2023-04-24T07:29:08;3.03;;;1.35;;
43337;SDS011;28933;52.492;13.434;2023-04-24T07:31:34;1.75;;;1.23;;
43337;SDS011;28933;52.492;13.434;2023-04-24T07:34:00;1.67;;;1.20;;
43337;SDS011;28933;52.492;13.434;2023-04-24T07:36:26;2.05;;;0.90;;
43337;SDS011;28933;52.492;13.434;2023-04-24T07:38:53;3.28;;;1.55;;
43337;SDS011;28933;52.492;13.434;2023-04-24T07:41:20;1.92;;;1.20;;
43337;SDS011;28933;52.492;13.434;2023-04-24T07:43:46;1.48;;;1.08;;
43337;SDS011;28933;52.492;13.434;2023-04-24T07:46:11;2.63;;;0.93;;
43337;SDS011;28933;52.492;13.434;2023-04-24T07:48:37;2.67;;;1.30;;
43337;SDS011;28933;52.492;13.434;2023-04-24T07:51:03;2.45;;;0.90;;
43337;SDS011;28933;52.492;13.434;2023-04-24T07:53:28;1.40;;;1.23;;
43337;SDS011;28933;52.492;13.434;2023-04-24T07:55:55;1.42;;;1.02;;
43337;SDS011;28933;52.492;13.434;2023-04-24T07:58:21;2.28;;;1.00;;
43337;SDS011;28933;52.492;13.434;2023-04-24T08:00:47;1.35;;;1.20;;
43337;SDS011;28933;52.492;13.434;2023-04-24T08:03:12;1.13;;;0.93;;
43337;SDS011;28933;52.492;13.434;2023-04-24T08:05:38;1.27;;;0.93;;
43337;SDS011;28933;52.492;13.434;2023-04-24T08:08:04;1.60;;;1.00;;
43337;SDS011;28933;52.492;13.434;2023-04-24T08:10:29;1.70;;;1.00;;
43337;SDS011;28933;52.492;13.434;2023-04-24T08:12:55;0.88;;;0.70;;
43337;SDS011;28933;52.492;13.434;2023-04-24T08:15:21;1.35;;;0.73;;
43337;SDS011;28933;52.492;13.434;2023-04-24T08:17:47;0.60;;;0.60;;
43337;SDS011;28933;52.492;13.434;2023-04-24T08:20:12;1.25;;;0.85;;
43337;SDS011;28933;52.492;13.434;2023-04-24T08:22:41;1.08;;;0.80;;
43337;SDS011;28933;52.492;13.434;2023-04-24T08:25:08;1.35;;;1.00;;
43337;SDS011;28933;52.492;13.434;2023-04-24T08:27:34;1.38;;;0.93;;
43337;SDS011;28933;52.492;13.434;2023-04-24T08:30:01;1.20;;;0.88;;
43337;SDS011;28933;52.492;13.434;2023-04-24T08:32:28;1.55;;;1.00;;
43337;SDS011;28933;52.492;13.434;2023-04-24T08:34:57;1.15;;;0.80;;
43337;SDS011;28933;52.492;13.434;2023-04-24T08:37:24;1.23;;;0.90;;
43337;SDS011;28933;52.492;13.434;2023-04-24T08:39:50;1.60;;;1.00;;
43337;SDS011;28933;52.492;13.434;2023-04-24T08:42:17;1.27;;;0.73;;
43337;SDS011;28933;52.492;13.434;2023-04-24T08:44:44;1.02;;;0.90;;
43337;SDS011;28933;52.492;13.434;2023-04-24T08:47:10;3.35;;;1.10;;
43337;SDS011;28933;52.492;13.434;2023-04-24T08:49:37;2.35;;;1.60;;
43337;SDS011;28933;52.492;13.434;2023-04-24T08:52:03;2.30;;;1.08;;
43337;SDS011;28933;52.492;13.434;2023-04-24T08:54:31;1.48;;;0.80;;
43337;SDS011;28933;52.492;13.434;2023-04-24T08:56:59;5.78;;;1.27;;
43337;SDS011;28933;52.492;13.434;2023-04-24T08:59:29;3.05;;;1.10;;
43337;SDS011;28933;52.492;13.434;2023-04-24T09:01:55;1.35;;;0.90;;
43337;SDS011;28933;52.492;13.434;2023-04-24T09:04:21;0.95;;;0.77;;
43337;SDS011;28933;52.492;13.434;2023-04-24T09:06:50;0.68;;;0.60;;
43337;SDS011;28933;52.492;13.434;2023-04-24T09:09:17;1.45;;;0.93;;
43337;SDS011;28933;52.492;13.434;2023-04-24T09:11:43;1.60;;;0.90;;
43337;SDS011;28933;52.492;13.434;2023-04-24T09:14:10;2.67;;;1.25;;
43337;SDS011;28933;52.492;13.434;2023-04-24T09:16:36;1.27;;;1.10;;
43337;SDS011;28933;52.492;13.434;2023-04-24T09:19:01;1.08;;;0.93;;
43337;SDS011;28933;52.492;13.434;2023-04-24T09:21:31;1.30;;;0.90;;
43337;SDS011;28933;52.492;13.434;2023-04-24T09:23:58;0.80;;;0.77;;
43337;SDS011;28933;52.492;13.434;2023-04-24T09:26:25;1.10;;;0.88;;
43337;SDS011;28933;52.492;13.434;2023-04-24T09:28:54;1.70;;;1.10;;
43337;SDS011;28933;52.492;13.434;2023-04-24T09:31:20;2.80;;;1.05;;
43337;SDS011;28933;52.492;13.434;2023-04-24T09:34:03;1.33;;;0.90;;
43337;SDS011;28933;52.492;13.434;2023-04-24T09:36:34;1.63;;;0.80;;
43337;SDS011;28933;52.492;13.434;2023-04-24T09:39:03;2.72;;;1.02;;
43337;SDS011;28933;52.492;13.434;2023-04-24T09:41:31;1.92;;;0.98;;
43337;SDS011;28933;52.492;13.434;2023-04-24T09:43:58;1.70;;;1.10;;
43337;SDS011;28933;52.492;13.434;2023-04-24T09:46:51;1.35;;;1.00;;
43337;SDS011;28933;52.492;13.434;2023-04-24T09:49:26;1.27;;;1.02;;
43337;SDS011;28933;52.492;13.434;2023-04-24T09:51:52;2.47;;;1.10;;
43337;SDS011;28933;52.492;13.434;2023-04-24T09:54:34;2.00;;;0.90;;
43337;SDS011;28933;52.492;13.434;2023-04-24T09:57:04;2.13;;;1.00;;
43337;SDS011;28933;52.492;13.434;2023-04-24T09:59:32;1.95;;;0.70;;
43337;SDS011;28933;52.492;13.434;2023-04-24T10:01:58;2.45;;;1.45;;
43337;SDS011;28933;52.492;13.434;2023-04-24T10:04:25;1.17;;;1.00;;
43337;SDS011;28933;52.492;13.434;2023-04-24T10:06:53;1.50;;;1.00;;
43337;SDS011;28933;52.492;13.434;2023-04-24T10:09:21;1.17;;;0.80;;
43337;SDS011;28933;52.492;13.434;2023-04-24T10:11:48;1.85;;;1.30;;
43337;SDS011;28933;52.492;13.434;2023-04-24T10:14:16;1.42;;;1.00;;
43337;SDS011;28933;52.492;13.434;2023-04-24T10:16:44;4.85;;;0.82;;
43337;SDS011;28933;52.492;13.434;2023-04-24T10:19:11;1.73;;;1.17;;
43337;SDS011;28933;52.492;13.434;2023-04-24T10:21:38;1.38;;;1.13;;
43337;SDS011;28933;52.492;13.434;2023-04-24T10:24:15;3.30;;;1.20;;
43337;SDS011;28933;52.492;13.434;2023-04-24T10:26:42;2.22;;;1.08;;
43337;SDS011;28933;52.492;13.434;2023-04-24T10:29:13;1.10;;;1.00;;
43337;SDS011;28933;52.492;13.434;2023-04-24T10:31:40;1.20;;;0.88;;
43337;SDS011;28933;52.492;13.434;2023-04-24T10:34:07;1.42;;;1.33;;
43337;SDS011;28933;52.492;13.434;2023-04-24T10:36:34;1.77;;;1.30;;
43337;SDS011;28933;52.492;13.434;2023-04-24T10:39:05;1.40;;;1.10;;
43337;SDS011;28933;52.492;13.434;2023-04-24T10:41:33;2.13;;;1.25;;
43337;SDS011;28933;52.492;13.434;2023-04-24T10:46:42;1.50;;;0.90;;
43337;SDS011;28933;52.492;13.434;2023-04-24T10:49:09;1.85;;;0.80;;
43337;SDS011;28933;52.492;13.434;2023-04-24T10:51:48;1.10;;;0.60;;
43337;SDS011;28933;52.492;13.434;2023-04-24T10:54:28;2.92;;;1.05;;
43337;SDS011;28933;52.492;13.434;2023-04-24T10:59:49;1.17;;;0.80;;
43337;SDS011;28933;52.492;13.434;2023-04-24T11:02:16;2.20;;;1.15;;
43337;SDS011;28933;52.492;13.434;2023-04-24T11:04:43;4.85;;;1.35;;
43337;SDS011;28933;52.492;13.434;2023-04-24T11:07:10;1.80;;;1.10;;
43337;SDS011;28933;52.492;13.434;2023-04-24T11:09:36;2.45;;;0.93;;
43337;SDS011;28933;52.492;13.434;2023-04-24T11:12:11;2.17;;;0.93;;
43337;SDS011;28933;52.492;13.434;2023-04-24T11:17:34;0.85;;;0.80;;
43337;SDS011;28933;52.492;13.434;2023-04-24T11:22:37;1.20;;;0.77;;
43337;SDS011;28933;52.492;13.434;2023-04-24T11:25:05;3.80;;;1.10;;
43337;SDS011;28933;52.492;13.434;2023-04-24T11:27:37;3.28;;;1.00;;
43337;SDS011;28933;52.492;13.434;2023-04-24T11:30:09;2.28;;;1.25;;
43337;SDS011;28933;52.492;13.434;2023-04-24T11:32:36;1.98;;;1.58;;
43337;SDS011;28933;52.492;13.434;2023-04-24T11:35:21;1.30;;;1.00;;
43337;SDS011;28933;52.492;13.434;2023-04-24T11:37:50;1.13;;;1.00;;
43337;SDS011;28933;52.492;13.434;2023-04-24T11:40:19;1.45;;;1.08;;
43337;SDS011;28933;52.492;13.434;2023-04-24T11:42:54;1.63;;;1.13;;
43337;SDS011;28933;52.492;13.434;2023-04-24T11:45:24;4.60;;;1.52;;
43337;SDS011;28933;52.492;13.434;2023-04-24T11:47:51;2.45;;;1.17;;
43337;SDS011;28933;52.492;13.434;2023-04-24T11:50:17;2.60;;;1.30;;
43337;SDS011;28933;52.492;13.434;2023-04-24T11:52:45;2.03;;;1.50;;
43337;SDS011;28933;52.492;13.434;2023-04-24T11:57:59;3.53;;;1.40;;
43337;SDS011;28933;52.492;13.434;2023-04-24T12:00:25;3.35;;;1.17;;
43337;SDS011;28933;52.492;13.434;2023-04-24T12:03:03;1.65;;;1.20;;
43337;SDS011;28933;52.492;13.434;2023-04-24T12:05:33;1.60;;;1.08;;
43337;SDS011;28933;52.492;13.434;2023-04-24T12:07:59;2.10;;;1.17;;
43337;SDS011;28933;52.492;13.434;2023-04-24T12:10:28;2.17;;;0.93;;
43337;SDS011;28933;52.492;13.434;2023-04-24T12:12:56;1.23;;;0.90;;
43337;SDS011;28933;52.492;13.434;2023-04-24T12:15:23;3.67;;;1.30;;
43337;SDS011;28933;52.492;13.434;2023-04-24T12:17:52;2.10;;;1.10;;
43337;SDS011;28933;52.492;13.434;2023-04-24T12:20:31;2.72;;;1.15;;
43337;SDS011;28933;52.492;13.434;2023-04-24T12:22:59;2.55;;;1.10;;
43337;SDS011;28933;52.492;13.434;2023-04-24T12:25:26;2.85;;;1.40;;
43337;SDS011;28933;52.492;13.434;2023-04-24T12:27:54;2.22;;;0.90;;
43337;SDS011;28933;52.492;13.434;2023-04-24T12:30:38;1.65;;;1.00;;
43337;SDS011;28933;52.492;13.434;2023-04-24T12:33:20;1.38;;;1.10;;
43337;SDS011;28933;52.492;13.434;2023-04-24T12:35:47;1.15;;;1.00;;
43337;SDS011;28933;52.492;13.434;2023-04-24T12:38:14;1.55;;;1.08;;
43337;SDS011;28933;52.492;13.434;2023-04-24T12:40:41;2.55;;;1.20;;
43337;SDS011;28933;52.492;13.434;2023-04-24T12:43:14;1.02;;;0.90;;
43337;SDS011;28933;52.492;13.434;2023-04-24T12:45:44;2.47;;;1.63;;
43337;SDS011;28933;52.492;13.434;2023-04-24T12:48:11;0.80;;;0.80;;
43337;SDS011;28933;52.492;13.434;2023-04-24T12:50:38;1.40;;;0.82;;
43337;SDS011;28933;52.492;13.434;2023-04-24T12:53:04;2.03;;;0.80;;
43337;SDS011;28933;52.492;13.434;2023-04-24T12:55:34;1.25;;;0.80;;
43337;SDS011;28933;52.492;13.434;2023-04-24T12:57:59;2.03;;;1.15;;
43337;SDS011;28933;52.492;13.434;2023-04-24T13:00:25;1.10;;;1.00;;
43337;SDS011;28933;52.492;13.434;2023-04-24T13:02:51;1.65;;;0.90;;
43337;SDS011;28933;52.492;13.434;2023-04-24T13:05:16;2.50;;;1.13;;
43337;SDS011;28933;52.492;13.434;2023-04-24T13:07:42;2.25;;;1.13;;
43337;SDS011;28933;52.492;13.434;2023-04-24T13:10:08;1.85;;;1.10;;
43337;SDS011;28933;52.492;13.434;2023-04-24T13:12:34;1.90;;;0.82;;
43337;SDS011;28933;52.492;13.434;2023-04-24T13:15:00;3.08;;;1.30;;
43337;SDS011;28933;52.492;13.434;2023-04-24T13:17:26;2.70;;;1.27;;
43337;SDS011;28933;52.492;13.434;2023-04-24T13:19:54;1.33;;;0.95;;
43337;SDS011;28933;52.492;13.434;2023-04-24T13:22:20;0.90;;;0.80;;
43337;SDS011;28933;52.492;13.434;2023-04-24T13:24:46;1.10;;;0.93;;
43337;SDS011;28933;52.492;13.434;2023-04-24T13:27:13;0.80;;;0.70;;
43337;SDS011;28933;52.492;13.434;2023-04-24T13:29:42;3.80;;;1.10;;
43337;SDS011;28933;52.492;13.434;2023-04-24T13:32:08;1.13;;;0.80;;
43337;SDS011;28933;52.492;13.434;2023-04-24T13:34:34;1.25;;;0.75;;
43337;SDS011;28933;52.492;13.434;2023-04-24T13:37:00;1.80;;;0.80;;
43337;SDS011;28933;52.492;13.434;2023-04-24T13:39:26;1.20;;;0.82;;
43337;SDS011;28933;52.492;13.434;2023-04-24T13:41:52;0.88;;;0.88;;
43337;SDS011;28933;52.492;13.434;2023-04-24T13:44:18;1.08;;;0.80;;
43337;SDS011;28933;52.492;13.434;2023-04-24T13:46:48;1.92;;;1.13;;
43337;SDS011;28933;52.492;13.434;2023-04-24T13:49:17;1.65;;;0.68;;
43337;SDS011;28933;52.492;13.434;2023-04-24T13:51:43;1.15;;;0.95;;
43337;SDS011;28933;52.492;13.434;2023-04-24T13:54:10;2.05;;;1.13;;
43337;SDS011;28933;52.492;13.434;2023-04-24T13:56:36;2.53;;;0.90;;
43337;SDS011;28933;52.492;13.434;2023-04-24T13:59:02;0.90;;;0.80;;
43337;SDS011;28933;52.492;13.434;2023-04-24T14:01:27;4.45;;;1.45;;
43337;SDS011;28933;52.492;13.434;2023-04-24T14:03:53;0.80;;;0.80;;
43337;SDS011;28933;52.492;13.434;2023-04-24T14:06:20;0.65;;;0.57;;
43337;SDS011;28933;52.492;13.434;2023-04-24T14:08:46;1.98;;;1.25;;
43337;SDS011;28933;52.492;13.434;2023-04-24T14:11:12;1.75;;;1.25;;
43337;SDS011;28933;52.492;13.434;2023-04-24T14:13:38;1.08;;;0.80;;
43337;SDS011;28933;52.492;13.434;2023-04-24T14:16:06;0.80;;;0.80;;
43337;SDS011;28933;52.492;13.434;2023-04-24T14:18:32;7.43;;;1.48;;
43337;SDS011;28933;52.492;13.434;2023-04-24T14:20:58;2.72;;;1.65;;
43337;SDS011;28933;52.492;13.434;2023-04-24T14:23:26;1.52;;;1.23;;
43337;SDS011;28933;52.492;13.434;2023-04-24T14:25:51;2.38;;;1.35;;
43337;SDS011;28933;52.492;13.434;2023-04-24T14:28:18;1.77;;;1.23;;
43337;SDS011;28933;52.492;13.434;2023-04-24T14:30:45;3.05;;;1.30;;
43337;SDS011;28933;52.492;13.434;2023-04-24T14:33:11;2.08;;;1.40;;
43337;SDS011;28933;52.492;13.434;2023-04-24T14:35:37;3.42;;;1.67;;
43337;SDS011;28933;52.492;13.434;2023-04-24T14:38:04;1.15;;;0.93;;
43337;SDS011;28933;52.492;13.434;2023-04-24T14:40:30;1.23;;;0.88;;
43337;SDS011;28933;52.492;13.434;2023-04-24T14:42:57;0.80;;;0.80;;
43337;SDS011;28933;52.492;13.434;2023-04-24T14:45:23;2.95;;;1.17;;